sensor_id;sensor_type;location;lat;lon;timestamp;P1;durP1;ratioP1;P2;durP2;ratioP2
34142;SDS011;20419;10.658;106.724;2024-01-27T13:51:31;20.02;;;16.88;;
34142;SDS011;20419;10.658;106.724;2024-01-27T13:53:58;19.47;;;16.37;;
34142;SDS011;20419;10.658;106.724;2024-01-27T13:56:26;19.42;;;15.85;;
34142;SDS011;20419;10.658;106.724;2024-01-27T13:58:57;18.38;;;15.57;;
34142;SDS011;20419;10.658;106.724;2024-01-27T14:01:24;19.15;;;15.70;;
34142;SDS011;20419;10.658;106.724;2024-01-27T14:03:51;19.30;;;16.33;;
34142;SDS011;20419;10.658;106.724;2024-01-27T14:06:18;18.83;;;16.15;;
34142;SDS011;20419;10.658;106.724;2024-01-27T14:08:46;21.47;;;17.07;;
34142;SDS011;20419;10.658;106.724;2024-01-27T14:11:13;19.92;;;15.85;;
34142;SDS011;20419;10.658;106.724;2024-01-27T14:13:40;17.67;;;14.73;;
34142;SDS011;20419;10.658;106.724;2024-01-27T14:16:08;18.88;;;15.20;;
34142;SDS011;20419;10.658;106.724;2024-01-27T14:18:35;19.45;;;15.93;;
34142;SDS011;20419;10.658;106.724;2024-01-27T14:21:02;20.27;;;16.10;;
34142;SDS011;20419;10.658;106.724;2024-01-27T14:23:29;18.27;;;14.75;;
34142;SDS011;20419;10.658;106.724;2024-01-27T14:25:57;20.30;;;16.08;;
34142;SDS011;20419;10.658;106.724;2024-01-27T14:28:24;18.98;;;15.07;;
34142;SDS011;20419;10.658;106.724;2024-01-27T14:30:51;17.95;;;14.32;;
34142;SDS011;20419;10.658;106.724;2024-01-27T14:33:18;17.35;;;13.85;;
34142;SDS011;20419;10.658;106.724;2024-01-27T14:35:47;17.70;;;14.33;;
34142;SDS011;20419;10.658;106.724;2024-01-27T14:38:14;17.13;;;14.37;;
34142;SDS011;20419;10.658;106.724;2024-01-27T14:40:40;17.45;;;14.88;;
34142;SDS011;20419;10.658;106.724;2024-01-27T14:43:07;20.33;;;15.25;;
34142;SDS011;20419;10.658;106.724;2024-01-27T14:45:35;17.27;;;14.80;;
34142;SDS011;20419;10.658;106.724;2024-01-27T14:48:02;16.42;;;13.35;;
34142;SDS011;20419;10.658;106.724;2024-01-27T14:50:30;17.92;;;14.68;;
34142;SDS011;20419;10.658;106.724;2024-01-27T14:52:57;18.00;;;14.95;;
34142;SDS011;20419;10.658;106.724;2024-01-27T14:55:27;17.17;;;14.70;;
34142;SDS011;20419;10.658;106.724;2024-01-27T15:00:22;17.15;;;13.93;;
34142;SDS011;20419;10.658;106.724;2024-01-27T15:02:51;17.23;;;14.25;;
34142;SDS011;20419;10.658;106.724;2024-01-27T15:05:18;18.77;;;14.20;;
34142;SDS011;20419;10.658;106.724;2024-01-27T15:07:45;16.05;;;13.43;;
34142;SDS011;20419;10.658;106.724;2024-01-27T15:10:12;18.05;;;13.82;;
34142;SDS011;20419;10.658;106.724;2024-01-27T15:12:39;16.40;;;13.48;;
34142;SDS011;20419;10.658;106.724;2024-01-27T15:15:06;17.08;;;14.45;;
34142;SDS011;20419;10.658;106.724;2024-01-27T15:17:33;21.23;;;14.70;;
34142;SDS011;20419;10.658;106.724;2024-01-27T15:20:00;16.52;;;12.40;;
34142;SDS011;20419;10.658;106.724;2024-01-27T15:22:28;15.82;;;12.85;;
34142;SDS011;20419;10.658;106.724;2024-01-27T15:24:54;17.40;;;13.77;;
34142;SDS011;20419;10.658;106.724;2024-01-27T15:27:22;15.67;;;12.80;;
34142;SDS011;20419;10.658;106.724;2024-01-27T15:29:49;16.73;;;13.50;;
34142;SDS011;20419;10.658;106.724;2024-01-27T15:32:18;16.60;;;12.90;;
34142;SDS011;20419;10.658;106.724;2024-01-27T15:34:51;17.05;;;12.75;;
34142;SDS011;20419;10.658;106.724;2024-01-27T15:37:18;17.50;;;13.25;;
34142;SDS011;20419;10.658;106.724;2024-01-27T15:39:45;14.20;;;12.00;;
34142;SDS011;20419;10.658;106.724;2024-01-27T15:42:12;17.92;;;12.25;;
34142;SDS011;20419;10.658;106.724;2024-01-27T15:44:39;16.80;;;11.95;;
34142;SDS011;20419;10.658;106.724;2024-01-27T15:47:06;16.80;;;12.30;;
34142;SDS011;20419;10.658;106.724;2024-01-27T15:49:33;18.58;;;13.25;;
34142;SDS011;20419;10.658;106.724;2024-01-27T15:52:00;14.95;;;12.18;;
34142;SDS011;20419;10.658;106.724;2024-01-27T15:54:27;16.15;;;12.02;;
34142;SDS011;20419;10.658;106.724;2024-01-27T15:56:54;16.95;;;13.18;;
34142;SDS011;20419;10.658;106.724;2024-01-27T15:59:21;15.48;;;12.38;;
34142;SDS011;20419;10.658;106.724;2024-01-27T16:01:47;15.13;;;11.43;;
34142;SDS011;20419;10.658;106.724;2024-01-27T16:04:14;16.52;;;12.38;;
34142;SDS011;20419;10.658;106.724;2024-01-27T16:06:41;15.38;;;10.93;;
34142;SDS011;20419;10.658;106.724;2024-01-27T16:09:09;17.25;;;11.80;;
34142;SDS011;20419;10.658;106.724;2024-01-27T16:11:37;14.17;;;10.67;;
34142;SDS011;20419;10.658;106.724;2024-01-27T16:14:04;17.50;;;12.47;;
34142;SDS011;20419;10.658;106.724;2024-01-27T16:16:31;16.10;;;12.45;;
34142;SDS011;20419;10.658;106.724;2024-01-27T16:18:58;15.77;;;11.95;;
34142;SDS011;20419;10.658;106.724;2024-01-27T16:21:25;14.40;;;11.52;;
34142;SDS011;20419;10.658;106.724;2024-01-27T16:23:52;15.88;;;11.60;;
34142;SDS011;20419;10.658;106.724;2024-01-27T16:26:19;14.73;;;11.85;;
34142;SDS011;20419;10.658;106.724;2024-01-27T16:28:48;16.23;;;12.05;;
34142;SDS011;20419;10.658;106.724;2024-01-27T16:31:16;15.93;;;11.48;;
34142;SDS011;20419;10.658;106.724;2024-01-27T16:33:43;17.17;;;10.83;;
34142;SDS011;20419;10.658;106.724;2024-01-27T16:36:09;14.88;;;11.45;;
34142;SDS011;20419;10.658;106.724;2024-01-27T16:38:36;15.73;;;11.30;;
34142;SDS011;20419;10.658;106.724;2024-01-27T16:41:05;16.58;;;11.57;;
34142;SDS011;20419;10.658;106.724;2024-01-27T16:43:31;15.18;;;10.43;;
34142;SDS011;20419;10.658;106.724;2024-01-27T16:45:58;16.02;;;11.18;;
34142;SDS011;20419;10.658;106.724;2024-01-27T16:48:25;15.90;;;10.48;;
34142;SDS011;20419;10.658;106.724;2024-01-27T16:50:52;15.73;;;11.27;;
34142;SDS011;20419;10.658;106.724;2024-01-27T16:53:19;13.20;;;10.35;;
34142;SDS011;20419;10.658;106.724;2024-01-27T16:55:46;14.07;;;11.27;;
34142;SDS011;20419;10.658;106.724;2024-01-27T16:58:13;14.88;;;10.43;;
34142;SDS011;20419;10.658;106.724;2024-01-27T17:00:40;15.88;;;9.85;;
34142;SDS011;20419;10.658;106.724;2024-01-27T17:03:07;15.27;;;10.80;;
34142;SDS011;20419;10.658;106.724;2024-01-27T17:05:34;13.07;;;10.13;;
34142;SDS011;20419;10.658;106.724;2024-01-27T17:08:01;12.95;;;10.38;;
34142;SDS011;20419;10.658;106.724;2024-01-27T17:10:27;13.50;;;10.30;;
34142;SDS011;20419;10.658;106.724;2024-01-27T17:12:54;14.40;;;10.55;;
34142;SDS011;20419;10.658;106.724;2024-01-27T17:15:23;14.45;;;10.73;;
34142;SDS011;20419;10.658;106.724;2024-01-27T17:17:54;17.42;;;10.68;;
34142;SDS011;20419;10.658;106.724;2024-01-27T17:20:21;14.10;;;9.98;;
34142;SDS011;20419;10.658;106.724;2024-01-27T17:22:50;14.50;;;10.57;;
34142;SDS011;20419;10.658;106.724;2024-01-27T17:25:18;14.32;;;10.55;;
34142;SDS011;20419;10.658;106.724;2024-01-27T17:27:45;13.98;;;10.45;;
34142;SDS011;20419;10.658;106.724;2024-01-27T17:30:13;12.98;;;9.68;;
34142;SDS011;20419;10.658;106.724;2024-01-27T17:32:40;15.18;;;10.52;;
34142;SDS011;20419;10.658;106.724;2024-01-27T17:35:08;13.25;;;9.68;;
34142;SDS011;20419;10.658;106.724;2024-01-27T17:37:35;13.68;;;10.10;;
34142;SDS011;20419;10.658;106.724;2024-01-27T17:40:02;17.23;;;10.60;;
34142;SDS011;20419;10.658;106.724;2024-01-27T17:42:32;14.93;;;10.45;;
34142;SDS011;20419;10.658;106.724;2024-01-27T17:45:05;11.77;;;8.95;;
34142;SDS011;20419;10.658;106.724;2024-01-27T17:47:36;11.75;;;8.73;;
34142;SDS011;20419;10.658;106.724;2024-01-27T17:50:03;12.55;;;9.05;;
34142;SDS011;20419;10.658;106.724;2024-01-27T17:52:31;14.45;;;10.07;;
34142;SDS011;20419;10.658;106.724;2024-01-27T17:54:58;13.88;;;10.07;;
34142;SDS011;20419;10.658;106.724;2024-01-27T17:57:26;13.98;;;9.30;;
34142;SDS011;20419;10.658;106.724;2024-01-27T17:59:54;13.60;;;9.35;;
34142;SDS011;20419;10.658;106.724;2024-01-27T18:02:21;15.85;;;9.40;;
34142;SDS011;20419;10.658;106.724;2024-01-27T18:04:51;13.40;;;8.82;;
34142;SDS011;20419;10.658;106.724;2024-01-27T18:07:19;13.05;;;9.80;;
34142;SDS011;20419;10.658;106.724;2024-01-27T18:09:48;14.82;;;9.43;;
34142;SDS011;20419;10.658;106.724;2024-01-27T18:12:15;11.90;;;9.27;;
34142;SDS011;20419;10.658;106.724;2024-01-27T18:14:42;11.52;;;8.98;;
34142;SDS011;20419;10.658;106.724;2024-01-27T18:17:10;14.75;;;9.75;;
34142;SDS011;20419;10.658;106.724;2024-01-27T18:19:37;15.30;;;9.38;;
34142;SDS011;20419;10.658;106.724;2024-01-27T18:22:05;14.23;;;9.15;;
34142;SDS011;20419;10.658;106.724;2024-01-27T18:24:33;12.95;;;9.00;;
34142;SDS011;20419;10.658;106.724;2024-01-27T18:27:00;13.52;;;8.45;;
34142;SDS011;20419;10.658;106.724;2024-01-27T18:29:27;12.35;;;8.63;;
34142;SDS011;20419;10.658;106.724;2024-01-27T18:31:55;12.45;;;8.98;;
34142;SDS011;20419;10.658;106.724;2024-01-27T18:34:23;11.98;;;8.88;;
34142;SDS011;20419;10.658;106.724;2024-01-27T18:36:50;13.48;;;8.85;;
34142;SDS011;20419;10.658;106.724;2024-01-27T18:39:18;12.32;;;8.63;;
34142;SDS011;20419;10.658;106.724;2024-01-27T18:41:45;13.38;;;8.82;;
34142;SDS011;20419;10.658;106.724;2024-01-27T18:44:12;11.40;;;8.60;;
34142;SDS011;20419;10.658;106.724;2024-01-27T18:46:43;12.18;;;8.52;;
34142;SDS011;20419;10.658;106.724;2024-01-27T18:49:10;14.00;;;8.77;;
34142;SDS011;20419;10.658;106.724;2024-01-27T18:51:39;14.10;;;9.48;;
34142;SDS011;20419;10.658;106.724;2024-01-27T18:54:08;11.15;;;7.75;;
34142;SDS011;20419;10.658;106.724;2024-01-27T18:59:03;13.68;;;8.55;;
34142;SDS011;20419;10.658;106.724;2024-01-27T19:01:30;14.43;;;8.88;;
34142;SDS011;20419;10.658;106.724;2024-01-27T19:03:57;11.65;;;8.15;;
34142;SDS011;20419;10.658;106.724;2024-01-27T19:06:24;11.98;;;8.32;;
34142;SDS011;20419;10.658;106.724;2024-01-27T19:08:51;12.77;;;8.25;;
34142;SDS011;20419;10.658;106.724;2024-01-27T19:11:18;13.77;;;8.15;;
34142;SDS011;20419;10.658;106.724;2024-01-27T19:13:45;14.55;;;9.27;;
34142;SDS011;20419;10.658;106.724;2024-01-27T19:16:11;13.00;;;8.95;;
34142;SDS011;20419;10.658;106.724;2024-01-27T19:18:38;13.88;;;8.65;;
34142;SDS011;20419;10.658;106.724;2024-01-27T19:21:05;13.07;;;8.77;;
34142;SDS011;20419;10.658;106.724;2024-01-27T19:23:32;13.75;;;8.25;;
34142;SDS011;20419;10.658;106.724;2024-01-27T19:25:59;14.30;;;8.65;;
34142;SDS011;20419;10.658;106.724;2024-01-27T19:28:26;13.25;;;8.65;;
34142;SDS011;20419;10.658;106.724;2024-01-27T19:30:53;14.43;;;9.63;;
34142;SDS011;20419;10.658;106.724;2024-01-27T19:33:20;14.20;;;9.18;;
34142;SDS011;20419;10.658;106.724;2024-01-27T19:35:47;13.60;;;9.02;;
34142;SDS011;20419;10.658;106.724;2024-01-27T19:38:14;12.07;;;8.65;;
34142;SDS011;20419;10.658;106.724;2024-01-27T19:40:44;12.80;;;9.07;;
34142;SDS011;20419;10.658;106.724;2024-01-27T19:43:10;14.15;;;9.23;;
34142;SDS011;20419;10.658;106.724;2024-01-27T19:45:37;15.10;;;10.38;;
34142;SDS011;20419;10.658;106.724;2024-01-27T19:48:04;12.80;;;8.35;;
34142;SDS011;20419;10.658;106.724;2024-01-27T19:50:35;15.05;;;9.02;;
34142;SDS011;20419;10.658;106.724;2024-01-27T19:53:02;14.80;;;9.85;;
34142;SDS011;20419;10.658;106.724;2024-01-27T19:55:35;14.57;;;8.82;;
34142;SDS011;20419;10.658;106.724;2024-01-27T19:58:02;14.05;;;9.52;;
34142;SDS011;20419;10.658;106.724;2024-01-27T20:00:29;14.10;;;8.57;;
34142;SDS011;20419;10.658;106.724;2024-01-27T20:02:59;12.55;;;9.05;;
34142;SDS011;20419;10.658;106.724;2024-01-27T20:05:28;14.30;;;8.95;;
34142;SDS011;20419;10.658;106.724;2024-01-27T20:07:55;11.68;;;8.60;;
34142;SDS011;20419;10.658;106.724;2024-01-27T20:10:22;14.30;;;9.30;;
34142;SDS011;20419;10.658;106.724;2024-01-27T20:12:49;14.43;;;9.18;;
34142;SDS011;20419;10.658;106.724;2024-01-27T20:15:21;10.93;;;8.55;;
34142;SDS011;20419;10.658;106.724;2024-01-27T20:17:50;14.05;;;8.93;;
34142;SDS011;20419;10.658;106.724;2024-01-27T20:20:17;14.13;;;8.97;;
34142;SDS011;20419;10.658;106.724;2024-01-27T20:22:44;13.07;;;9.23;;
34142;SDS011;20419;10.658;106.724;2024-01-27T20:25:11;13.35;;;8.35;;
34142;SDS011;20419;10.658;106.724;2024-01-27T20:27:38;13.88;;;9.00;;
34142;SDS011;20419;10.658;106.724;2024-01-27T20:30:05;13.00;;;9.18;;
34142;SDS011;20419;10.658;106.724;2024-01-27T20:32:33;11.75;;;7.82;;
34142;SDS011;20419;10.658;106.724;2024-01-27T20:35:00;13.55;;;8.63;;
34142;SDS011;20419;10.658;106.724;2024-01-27T20:37:29;13.05;;;8.25;;
34142;SDS011;20419;10.658;106.724;2024-01-27T20:39:56;11.98;;;8.75;;
34142;SDS011;20419;10.658;106.724;2024-01-27T20:42:23;10.65;;;7.88;;
34142;SDS011;20419;10.658;106.724;2024-01-27T20:44:50;14.40;;;9.05;;
34142;SDS011;20419;10.658;106.724;2024-01-27T20:47:16;13.43;;;8.10;;
34142;SDS011;20419;10.658;106.724;2024-01-27T20:49:43;15.07;;;9.35;;
34142;SDS011;20419;10.658;106.724;2024-01-27T20:52:10;14.10;;;8.82;;
34142;SDS011;20419;10.658;106.724;2024-01-27T20:54:37;11.43;;;8.45;;
34142;SDS011;20419;10.658;106.724;2024-01-27T20:57:04;12.55;;;8.18;;
34142;SDS011;20419;10.658;106.724;2024-01-27T20:59:31;14.20;;;9.43;;
34142;SDS011;20419;10.658;106.724;2024-01-27T21:01:58;15.07;;;8.60;;
34142;SDS011;20419;10.658;106.724;2024-01-27T21:04:27;15.25;;;8.98;;
34142;SDS011;20419;10.658;106.724;2024-01-27T21:06:54;13.35;;;8.70;;
34142;SDS011;20419;10.658;106.724;2024-01-27T21:09:21;14.23;;;8.80;;
34142;SDS011;20419;10.658;106.724;2024-01-27T21:11:48;14.55;;;8.85;;
34142;SDS011;20419;10.658;106.724;2024-01-27T21:14:15;11.75;;;8.55;;
34142;SDS011;20419;10.658;106.724;2024-01-27T21:16:42;14.18;;;8.48;;
34142;SDS011;20419;10.658;106.724;2024-01-27T21:19:09;13.43;;;8.85;;
34142;SDS011;20419;10.658;106.724;2024-01-27T21:21:35;12.48;;;8.45;;
34142;SDS011;20419;10.658;106.724;2024-01-27T21:24:02;13.27;;;7.97;;
34142;SDS011;20419;10.658;106.724;2024-01-27T21:26:29;12.27;;;8.18;;
34142;SDS011;20419;10.658;106.724;2024-01-27T21:28:56;12.82;;;8.40;;
34142;SDS011;20419;10.658;106.724;2024-01-27T21:31:24;16.23;;;9.37;;
34142;SDS011;20419;10.658;106.724;2024-01-27T21:33:51;13.65;;;8.27;;
34142;SDS011;20419;10.658;106.724;2024-01-27T21:36:18;11.07;;;7.53;;
34142;SDS011;20419;10.658;106.724;2024-01-27T21:38:44;10.55;;;7.50;;
34142;SDS011;20419;10.658;106.724;2024-01-27T21:41:11;12.60;;;7.70;;
34142;SDS011;20419;10.658;106.724;2024-01-27T21:43:38;13.43;;;8.45;;
34142;SDS011;20419;10.658;106.724;2024-01-27T21:46:05;13.55;;;7.90;;
34142;SDS011;20419;10.658;106.724;2024-01-27T21:48:32;12.52;;;7.88;;
34142;SDS011;20419;10.658;106.724;2024-01-27T21:50:59;12.10;;;7.80;;
34142;SDS011;20419;10.658;106.724;2024-01-27T21:53:25;11.05;;;7.60;;
34142;SDS011;20419;10.658;106.724;2024-01-27T21:55:53;11.80;;;7.78;;
34142;SDS011;20419;10.658;106.724;2024-01-27T21:58:20;11.80;;;8.50;;
34142;SDS011;20419;10.658;106.724;2024-01-27T22:00:48;11.67;;;8.07;;
34142;SDS011;20419;10.658;106.724;2024-01-27T22:03:15;11.73;;;7.75;;
34142;SDS011;20419;10.658;106.724;2024-01-27T22:05:42;10.40;;;7.85;;
34142;SDS011;20419;10.658;106.724;2024-01-27T22:08:09;12.70;;;7.97;;
34142;SDS011;20419;10.658;106.724;2024-01-27T22:10:37;10.70;;;7.47;;
34142;SDS011;20419;10.658;106.724;2024-01-27T22:13:04;11.32;;;7.88;;
34142;SDS011;20419;10.658;106.724;2024-01-27T22:15:33;12.10;;;7.55;;
34142;SDS011;20419;10.658;106.724;2024-01-27T22:18:07;12.00;;;8.38;;
34142;SDS011;20419;10.658;106.724;2024-01-27T22:20:34;12.10;;;8.43;;
34142;SDS011;20419;10.658;106.724;2024-01-27T22:23:01;11.40;;;7.70;;
34142;SDS011;20419;10.658;106.724;2024-01-27T22:25:28;11.93;;;7.57;;
34142;SDS011;20419;10.658;106.724;2024-01-27T22:27:54;10.30;;;7.40;;
34142;SDS011;20419;10.658;106.724;2024-01-27T22:30:21;11.85;;;7.35;;
34142;SDS011;20419;10.658;106.724;2024-01-27T22:32:48;12.20;;;8.15;;
34142;SDS011;20419;10.658;106.724;2024-01-27T22:35:15;10.60;;;7.88;;
34142;SDS011;20419;10.658;106.724;2024-01-27T22:37:42;10.57;;;7.40;;
34142;SDS011;20419;10.658;106.724;2024-01-27T22:40:09;10.90;;;7.75;;
34142;SDS011;20419;10.658;106.724;2024-01-27T22:42:36;12.27;;;7.82;;
34142;SDS011;20419;10.658;106.724;2024-01-27T22:45:03;11.40;;;7.18;;
34142;SDS011;20419;10.658;106.724;2024-01-27T22:47:31;11.10;;;7.70;;
34142;SDS011;20419;10.658;106.724;2024-01-27T22:49:58;9.80;;;7.38;;
34142;SDS011;20419;10.658;106.724;2024-01-27T22:52:28;12.27;;;8.10;;
34142;SDS011;20419;10.658;106.724;2024-01-27T22:54:55;11.93;;;8.07;;
34142;SDS011;20419;10.658;106.724;2024-01-27T22:57:22;9.95;;;7.57;;
34142;SDS011;20419;10.658;106.724;2024-01-27T22:59:49;11.05;;;7.50;;
34142;SDS011;20419;10.658;106.724;2024-01-27T23:02:16;12.02;;;7.63;;
34142;SDS011;20419;10.658;106.724;2024-01-27T23:04:43;11.27;;;7.30;;
34142;SDS011;20419;10.658;106.724;2024-01-27T23:07:10;9.35;;;7.32;;
34142;SDS011;20419;10.658;106.724;2024-01-27T23:09:36;10.30;;;7.97;;
34142;SDS011;20419;10.658;106.724;2024-01-27T23:12:03;10.27;;;7.15;;
34142;SDS011;20419;10.658;106.724;2024-01-27T23:14:30;9.05;;;7.30;;
34142;SDS011;20419;10.658;106.724;2024-01-27T23:16:57;10.13;;;7.50;;
34142;SDS011;20419;10.658;106.724;2024-01-27T23:19:24;9.77;;;7.40;;
34142;SDS011;20419;10.658;106.724;2024-01-27T23:21:51;9.55;;;7.30;;
34142;SDS011;20419;10.658;106.724;2024-01-27T23:24:17;10.60;;;7.15;;
34142;SDS011;20419;10.658;106.724;2024-01-27T23:26:44;11.65;;;7.63;;
34142;SDS011;20419;10.658;106.724;2024-01-27T23:29:11;11.90;;;7.40;;
34142;SDS011;20419;10.658;106.724;2024-01-27T23:31:38;9.00;;;7.00;;
34142;SDS011;20419;10.658;106.724;2024-01-27T23:34:05;10.43;;;7.13;;
34142;SDS011;20419;10.658;106.724;2024-01-27T23:36:33;11.15;;;7.80;;
34142;SDS011;20419;10.658;106.724;2024-01-27T23:38:59;9.75;;;6.75;;
34142;SDS011;20419;10.658;106.724;2024-01-27T23:41:26;9.13;;;7.40;;
34142;SDS011;20419;10.658;106.724;2024-01-27T23:43:53;9.10;;;7.20;;
34142;SDS011;20419;10.658;106.724;2024-01-27T23:46:20;11.70;;;7.30;;
34142;SDS011;20419;10.658;106.724;2024-01-27T23:48:47;10.10;;;7.43;;
34142;SDS011;20419;10.658;106.724;2024-01-27T23:51:14;12.25;;;7.70;;
34142;SDS011;20419;10.658;106.724;2024-01-27T23:53:42;10.63;;;7.03;;
34142;SDS011;20419;10.658;106.724;2024-01-27T23:56:10;9.10;;;6.78;;
34142;SDS011;20419;10.658;106.724;2024-01-27T23:58:39;10.30;;;7.10;;
